Time;durP1;ratioP1;P1;durP2;ratioP2;P2;SDS_P1;SDS_P2;PMS_P1;PMS_P2;Temp;Humidity;BMP_temperature;BMP_pressure;BME280_temperature;BME280_humidity;BME280_pressure;Samples;Min_cycle;Max_cycle;Signal;HPM_P1;HPM_P2
2022/10/06 00:02:18;;;;;;;1999.90;999.90;;;;;;;12.92;100.00;95708.81;5095780;28;20271;-57
2022/10/06 00:04:44;;;;;;;1999.90;999.90;;;;;;;12.88;100.00;95714.38;5095797;28;20248;-58
2022/10/06 00:07:10;;;;;;;1999.90;999.90;;;;;;;12.84;100.00;95721.06;5095993;28;20178;-55
2022/10/06 00:09:35;;;;;;;1999.90;999.90;;;;;;;12.81;100.00;95730.09;5096675;28;20185;-57
2022/10/06 00:12:01;;;;;;;1999.90;999.90;;;;;;;12.77;100.00;95740.31;5096011;28;20315;-58
2022/10/06 00:14:27;;;;;;;1999.90;999.90;;;;;;;12.73;100.00;95734.13;5095440;28;20235;-55
2022/10/06 00:16:52;;;;;;;1999.90;999.90;;;;;;;12.69;100.00;95744.34;5096406;28;20212;-57
2022/10/06 00:19:18;;;;;;;1999.90;999.90;;;;;;;12.65;100.00;95740.88;5095703;28;20236;-57
2022/10/06 00:21:43;;;;;;;1999.90;999.90;;;;;;;12.59;100.00;95745.22;5096246;28;20175;-58
2022/10/06 00:24:08;;;;;;;1999.90;999.90;;;;;;;12.55;100.00;95739.00;5095412;28;20183;-56
2022/10/06 00:26:34;;;;;;;1999.90;999.90;;;;;;;12.51;100.00;95743.75;5095709;28;20185;-58
2022/10/06 00:29:00;;;;;;;1999.90;999.90;;;;;;;12.48;100.00;95752.75;5095535;28;20286;-58
2022/10/06 00:31:25;;;;;;;1999.90;999.90;;;;;;;12.43;100.00;95755.97;5095197;28;20203;-59
2022/10/06 00:33:51;;;;;;;1999.90;999.90;;;;;;;12.38;100.00;95753.63;5095448;28;20194;-59
2022/10/06 00:36:17;;;;;;;1999.90;999.90;;;;;;;12.35;100.00;95762.69;5094951;28;20223;-59
2022/10/06 00:38:43;;;;;;;1999.90;999.90;;;;;;;12.32;100.00;95758.00;5095890;28;20202;-60
2022/10/06 00:41:12;;;;;;;1999.90;999.90;;;;;;;12.32;100.00;95771.72;5095663;28;20600;-59
2022/10/06 00:43:47;;;;;;;1999.90;999.90;;;;;;;12.33;100.00;95770.53;5095276;28;20188;-59
2022/10/06 00:46:25;;;;;;;1999.90;999.90;;;;;;;12.38;100.00;95761.84;5096071;28;20173;-59
2022/10/06 00:49:03;;;;;;;1999.90;999.90;;;;;;;12.37;100.00;95765.78;5094774;28;20183;-60
2022/10/06 00:51:31;;;;;;;1999.90;999.90;;;;;;;12.45;100.00;95756.31;5095341;28;20185;-64
2022/10/06 00:53:56;;;;;;;1999.90;999.90;;;;;;;12.48;100.00;95755.50;5095448;28;20205;-59
2022/10/06 00:56:22;;;;;;;1999.90;999.90;;;;;;;12.47;100.00;95759.44;5095459;28;20175;-60
2022/10/06 00:58:49;;;;;;;1999.90;999.90;;;;;;;12.50;100.00;95753.91;5095473;28;20174;-60
2022/10/06 01:01:17;;;;;;;1999.90;999.90;;;;;;;12.51;100.00;95743.75;5094828;28;20178;-60
2022/10/06 01:03:49;;;;;;;1999.90;999.90;;;;;;;12.56;100.00;95746.81;5095524;28;20245;-59
2022/10/06 01:06:15;;;;;;;1999.90;999.90;;;;;;;12.59;100.00;95745.22;5095574;28;20269;-59
2022/10/06 01:08:40;;;;;;;1999.90;999.90;;;;;;;12.62;100.00;95742.47;5095179;28;20254;-59
2022/10/06 01:11:12;;;;;;;1999.90;999.90;;;;;;;12.64;100.00;95737.34;5094501;28;20204;-58
2022/10/06 01:13:37;;;;;;;1999.90;999.90;;;;;;;12.65;100.00;95738.13;5094688;28;20225;-58
2022/10/06 01:16:17;;;;;;;1999.90;999.90;;;;;;;12.64;100.00;95734.59;5094675;28;20241;-58
2022/10/06 01:18:45;;;;;;;1999.90;999.90;;;;;;;12.65;100.00;95733.41;5095164;28;20173;-58
2022/10/06 01:21:19;;;;;;;1999.90;999.90;;;;;;;12.65;100.00;95727.16;5095107;28;20273;-58
2022/10/06 01:23:44;;;;;;;1999.90;999.90;;;;;;;12.62;100.00;95727.97;5094247;28;20219;-58
2022/10/06 01:26:13;;;;;;;1999.90;999.90;;;;;;;12.62;100.00;95728.75;5094410;28;20171;-65
2022/10/06 01:28:39;;;;;;;1999.90;999.90;;;;;;;12.64;100.00;95725.63;5094270;28;20177;-65
2022/10/06 01:31:09;;;;;;;1999.90;999.90;;;;;;;12.61;100.00;95731.91;5093971;28;20183;-56
2022/10/06 01:33:35;;;;;;;1999.90;999.90;;;;;;;12.60;100.00;95730.31;5094584;28;20212;-54
2022/10/06 01:36:00;;;;;;;1999.90;999.90;;;;;;;12.57;100.00;95737.41;5094131;28;20177;-55
2022/10/06 01:38:26;;;;;;;1999.90;999.90;;;;;;;12.52;100.00;95745.28;5095323;28;20571;-54
2022/10/06 01:40:52;;;;;;;1999.90;999.90;;;;;;;12.48;100.00;95742.59;5093871;28;20173;-57
2022/10/06 01:43:17;;;;;;;1999.90;999.90;;;;;;;12.43;100.00;95753.22;5094201;28;20274;-53
2022/10/06 01:45:43;;;;;;;1999.90;999.90;;;;;;;12.37;100.00;95760.31;5094110;28;20172;-61
2022/10/06 01:48:08;;;;;;;1999.90;999.90;;;;;;;12.33;100.00;95767.78;5093813;28;20198;-54
2022/10/06 01:50:34;;;;;;;1999.90;999.90;;;;;;;12.32;100.00;95771.72;5093990;28;20232;-55
2022/10/06 01:52:59;;;;;;;1999.90;999.90;;;;;;;12.29;100.00;95776.03;5093922;28;20177;-55
2022/10/06 01:55:26;;;;;;;1999.90;999.90;;;;;;;12.23;100.00;95782.34;5093923;28;20197;-53
2022/10/06 01:57:51;;;;;;;1999.90;999.90;;;;;;;12.15;100.00;95783.56;5093806;28;20307;-57
2022/10/06 02:00:17;;;;;;;1999.90;999.90;;;;;;;12.14;100.00;95790.25;5094443;28;20205;-53
2022/10/06 02:02:43;;;;;;;1999.90;999.90;;;;;;;12.10;100.00;95789.50;5094416;28;20181;-55
2022/10/06 02:05:09;;;;;;;1999.90;999.90;;;;;;;12.07;100.00;95803.97;5093930;28;20194;-59
2022/10/06 02:07:35;;;;;;;1999.90;999.90;;;;;;;12.04;100.00;95802.03;5094351;28;20516;-64
2022/10/06 02:10:00;;;;;;;1999.90;999.90;;;;;;;12.01;100.00;95805.56;5093643;28;20273;-65
2022/10/06 02:12:26;;;;;;;1999.90;999.90;;;;;;;11.99;100.00;95808.72;5093953;28;20228;-65
2022/10/06 02:14:51;;;;;;;1999.90;999.90;;;;;;;11.96;100.00;95808.75;5093756;28;20563;-66
2022/10/06 02:17:17;;;;;;;1999.90;999.90;;;;;;;11.91;100.00;95825.59;5093571;28;20167;-62
2022/10/06 02:19:42;;;;;;;1999.90;999.90;;;;;;;11.90;100.00;95824.03;5093512;28;20172;-62
2022/10/06 02:22:07;;;;;;;1999.90;999.90;;;;;;;11.89;100.00;95833.44;5093353;28;20176;-57
2022/10/06 02:24:33;;;;;;;1999.90;999.90;;;;;;;11.89;100.00;95834.22;5093619;28;20174;-59
2022/10/06 02:26:59;;;;;;;1999.90;999.90;;;;;;;11.92;100.00;95835.38;5093588;28;20255;-60
2022/10/06 02:29:24;;;;;;;1999.90;999.90;;;;;;;11.90;100.00;95845.91;5093566;28;20197;-60
2022/10/06 02:31:51;;;;;;;1999.90;999.90;;;;;;;11.91;100.00;95844.75;5093401;28;20534;-60
2022/10/06 02:34:16;;;;;;;1999.90;999.90;;;;;;;11.91;100.00;95842.03;5092994;28;20198;-60
2022/10/06 02:36:41;;;;;;;1999.90;999.90;;;;;;;11.88;100.00;95842.81;5097057;28;20171;-60
2022/10/06 02:39:07;;;;;;;1999.90;999.90;;;;;;;11.87;100.00;95846.75;5098130;28;20261;-60
2022/10/06 02:41:32;;;;;;;1999.90;999.90;;;;;;;11.87;100.00;95854.97;5098082;28;20245;-58
2022/10/06 02:43:58;;;;;;;1999.90;999.90;;;;;;;11.82;100.00;95855.34;5097598;28;20244;-60
2022/10/06 02:46:23;;;;;;;1999.90;999.90;;;;;;;11.78;100.00;95860.88;5097828;28;20189;-59
2022/10/06 02:48:49;;;;;;;1999.90;999.90;;;;;;;11.70;100.00;95874.97;5097521;28;20242;-60
2022/10/06 02:51:16;;;;;;;1999.90;999.90;;;;;;;11.62;100.00;95873.44;5097375;28;20174;-60
2022/10/06 02:53:44;;;;;;;1999.90;999.90;;;;;;;11.53;100.00;95884.00;5097265;28;20256;-60
2022/10/06 02:56:11;;;;;;;1999.90;999.90;;;;;;;11.47;100.00;95891.84;5098240;28;20270;-59
2022/10/06 02:58:41;;;;;;;1999.90;999.90;;;;;;;11.47;100.00;95912.94;5097261;28;20174;-64
2022/10/06 03:01:27;;;;;;;1999.90;999.90;;;;;;;11.41;100.00;95903.59;5097790;28;20253;-59
2022/10/06 03:03:53;;;;;;;1999.90;999.90;;;;;;;11.41;100.00;95907.09;5096358;28;20208;-60
2022/10/06 03:06:27;;;;;;;1999.90;999.90;;;;;;;11.45;100.00;95909.81;5097477;28;20181;-60
2022/10/06 03:08:52;;;;;;;1999.90;999.90;;;;;;;11.44;100.00;95905.53;5096903;28;20169;-59
2022/10/06 03:11:19;;;;;;;1999.90;999.90;;;;;;;11.52;100.00;95912.53;5097740;28;20179;-59
2022/10/06 03:13:48;;;;;;;1999.90;999.90;;;;;;;11.54;100.00;95915.66;5096471;28;20232;-60
2022/10/06 03:16:18;;;;;;;1999.90;999.90;;;;;;;11.58;100.00;95916.44;5097675;28;20181;-60
2022/10/06 03:18:50;;;;;;;1999.90;999.90;;;;;;;11.60;100.00;95908.59;5096464;28;20179;-64
2022/10/06 03:21:17;;;;;;;1999.90;999.90;;;;;;;11.62;100.00;95901.56;5097266;28;20264;-60
2022/10/06 03:23:44;;;;;;;1999.90;999.90;;;;;;;11.65;100.00;95905.50;5097301;28;20168;-59
2022/10/06 03:26:10;;;;;;;1999.90;999.90;;;;;;;11.67;100.00;95909.38;5096556;28;20175;-59
2022/10/06 03:28:35;;;;;;;1999.90;999.90;;;;;;;11.68;100.00;95901.94;5096599;28;20182;-59
2022/10/06 03:31:02;;;;;;;1999.90;999.90;;;;;;;11.67;100.00;95905.84;5096522;28;20173;-60
2022/10/06 03:33:28;;;;;;;1999.90;999.90;;;;;;;11.63;100.00;95902.34;5096596;28;20220;-59
2022/10/06 03:36:06;;;;;;;1999.90;999.90;;;;;;;11.61;100.00;95899.22;5097406;28;20175;-57
2022/10/06 03:38:33;;;;;;;1999.90;999.90;;;;;;;11.58;100.00;95910.97;5096027;28;20260;-59
2022/10/06 03:41:10;;;;;;;1999.90;999.90;;;;;;;11.56;100.00;95913.28;5096007;28;20580;-60
2022/10/06 03:43:36;;;;;;;1999.90;999.90;;;;;;;11.57;100.00;95920.31;5096429;28;20172;-59
2022/10/06 03:46:03;;;;;;;1999.90;999.90;;;;;;;11.50;100.00;95925.81;5096104;28;20172;-60
2022/10/06 03:48:30;;;;;;;1999.90;999.90;;;;;;;11.47;100.00;95926.63;5096402;28;20169;-59
2022/10/06 03:50:57;;;;;;;1999.90;999.90;;;;;;;11.45;100.00;95929.75;5096037;28;20227;-60
2022/10/06 03:53:26;;;;;;;1999.90;999.90;;;;;;;11.45;100.00;95928.97;5096416;28;20180;-59
2022/10/06 03:56:09;;;;;;;1999.90;999.90;;;;;;;11.41;100.00;95934.44;5095966;28;20182;-59
2022/10/06 03:58:37;;;;;;;1999.90;999.90;;;;;;;11.38;100.00;95943.44;5096610;28;20184;-59
2022/10/06 04:01:06;;;;;;;1999.90;999.90;;;;;;;11.31;100.00;95942.66;5096113;28;20170;-59
2022/10/06 04:03:32;;;;;;;1999.90;999.90;;;;;;;11.27;100.00;95950.09;5096073;28;20228;-61
2022/10/06 04:06:00;;;;;;;1999.90;999.90;;;;;;;11.23;100.00;95950.13;5096021;28;20169;-59
2022/10/06 04:08:26;;;;;;;1999.90;999.90;;;;;;;11.20;100.00;95950.09;5095688;28;20232;-59
2022/10/06 04:10:52;;;;;;;1999.90;999.90;;;;;;;11.18;100.00;95952.47;5095902;28;20169;-60
2022/10/06 04:13:18;;;;;;;1999.90;999.90;;;;;;;11.15;100.00;95964.94;5096052;28;20225;-57
2022/10/06 04:15:45;;;;;;;1999.90;999.90;;;;;;;11.15;100.00;95964.19;5095409;28;20174;-59
2022/10/06 04:18:11;;;;;;;1999.90;999.90;;;;;;;11.14;100.00;95962.63;5095747;28;20168;-60
2022/10/06 04:20:37;;;;;;;1999.90;999.90;;;;;;;11.12;100.00;95970.44;5095644;28;20169;-60
2022/10/06 04:23:02;;;;;;;1999.90;999.90;;;;;;;11.12;100.00;95970.44;5095504;28;20187;-61
2022/10/06 04:25:28;;;;;;;1999.90;999.90;;;;;;;11.10;100.00;95956.34;5095342;28;20185;-60
2022/10/06 04:27:53;;;;;;;1999.90;999.90;;;;;;;11.06;100.00;95969.25;5095558;28;20186;-58
2022/10/06 04:30:19;;;;;;;1999.90;999.90;;;;;;;11.04;100.00;95977.06;5095358;28;20184;-55
2022/10/06 04:32:44;;;;;;;1999.90;999.90;;;;;;;11.02;100.00;95982.13;5095514;28;20177;-52
2022/10/06 04:35:10;;;;;;;1999.90;999.90;;;;;;;11.00;100.00;95987.22;5095281;28;20196;-58
2022/10/06 04:37:36;;;;;;;1999.90;999.90;;;;;;;10.97;100.00;95988.00;5095457;28;20177;-58
2022/10/06 04:40:01;;;;;;;1999.90;999.90;;;;;;;10.96;100.00;95991.91;5095220;28;20175;-58
2022/10/06 04:42:28;;;;;;;1999.90;999.90;;;;;;;10.93;100.00;95989.97;5095340;28;20177;-57
2022/10/06 04:44:54;;;;;;;1999.90;999.90;;;;;;;10.92;100.00;95988.41;5095219;28;20173;-56
2022/10/06 04:47:19;;;;;;;1999.90;999.90;;;;;;;10.89;100.00;95989.19;5095757;28;20222;-59
2022/10/06 04:49:45;;;;;;;1999.90;999.90;;;;;;;10.89;100.00;95989.19;5095201;28;20571;-55
2022/10/06 04:52:10;;;;;;;1999.90;999.90;;;;;;;10.89;100.00;95994.66;5095619;28;20606;-60
2022/10/06 04:54:35;;;;;;;1999.90;999.90;;;;;;;10.91;100.00;95986.81;5094198;28;20205;-60
2022/10/06 04:57:01;;;;;;;1999.90;999.90;;;;;;;10.92;100.00;95989.16;5094915;28;20179;-60
2022/10/06 05:00:21;;;;;;;1999.90;999.90;;;;;;;10.92;100.00;95991.13;5094180;28;20174;-60
2022/10/06 05:02:12;;;;;;;1999.90;999.90;;;;;;;10.89;100.00;95989.19;5096464;28;20258;-60
2022/10/06 05:04:38;;;;;;;1999.90;999.90;;;;;;;10.86;100.00;95979.03;5094334;28;20232;-61
2022/10/06 05:07:04;;;;;;;1999.90;999.90;;;;;;;10.83;100.00;95988.00;5094726;28;20188;-61
2022/10/06 05:09:30;;;;;;;1999.90;999.90;;;;;;;10.80;100.00;95986.03;5095115;28;20226;-57
2022/10/06 05:11:55;;;;;;;1999.90;999.90;;;;;;;10.78;100.00;95985.66;5094679;28;20185;-62
2022/10/06 05:14:21;;;;;;;1999.90;999.90;;;;;;;10.75;100.00;95989.16;5094085;28;20269;-62
2022/10/06 05:16:46;;;;;;;1999.90;999.90;;;;;;;10.76;100.00;96001.66;5094987;28;20208;-61
2022/10/06 05:19:11;;;;;;;1999.90;999.90;;;;;;;10.79;100.00;95995.41;5094026;28;20237;-60
2022/10/06 05:21:37;;;;;;;1999.90;999.90;;;;;;;10.82;100.00;95997.38;5094535;28;20267;-60
2022/10/06 05:24:02;;;;;;;1999.90;999.90;;;;;;;10.79;100.00;96006.34;5094439;28;20242;-61
2022/10/06 05:26:31;;;;;;;1999.90;999.90;;;;;;;10.77;100.00;96014.94;5094107;28;20169;-57
2022/10/06 05:28:57;;;;;;;1999.90;999.90;;;;;;;10.75;100.00;96016.50;5094018;28;20184;-56
2022/10/06 05:31:25;;;;;;;1999.90;999.90;;;;;;;10.77;100.00;96014.94;5094671;28;20285;-57
2022/10/06 05:33:51;;;;;;;1999.90;999.90;;;;;;;10.79;100.00;96023.53;5094111;28;20223;-56
2022/10/06 05:36:19;;;;;;;1999.90;999.90;;;;;;;10.91;100.00;96025.06;5094254;28;20244;-57
2022/10/06 05:38:45;;;;;;;1999.90;999.90;;;;;;;11.16;100.00;96031.34;5094252;28;20180;-56
2022/10/06 05:41:22;;;;;;;1999.90;999.90;;;;;;;11.48;100.00;96026.63;5094073;28;20170;-57
2022/10/06 05:43:48;;;;;;;1999.90;999.90;;;;;;;11.71;100.00;96016.06;5094654;28;20195;-66
2022/10/06 05:46:19;;;;;;;1999.90;999.90;;;;;;;11.80;100.00;96005.50;5094307;28;20250;-59
2022/10/06 05:48:54;;;;;;;1999.90;999.90;;;;;;;12.14;100.00;95990.09;5094443;28;20171;-66
2022/10/06 05:51:21;;;;;;;1999.90;999.90;;;;;;;12.55;100.00;95969.13;5093693;28;20182;-66
2022/10/06 05:53:47;;;;;;;1999.90;999.90;;;;;;;13.06;100.00;95949.97;5094217;28;20317;-66
2022/10/06 05:56:17;;;;;;;1999.90;999.90;;;;;;;13.71;100.00;95908.53;5093795;28;20209;-66
2022/10/06 05:58:45;;;;;;;1999.90;999.90;;;;;;;14.30;100.00;95857.56;5093757;28;20237;-65
2022/10/06 06:01:25;;;;;;;1999.90;999.90;;;;;;;14.81;100.00;95782.88;5093620;28;20187;-66
2022/10/06 06:03:53;;;;;;;1999.90;999.90;;;;;;;15.31;100.00;95717.44;5093502;28;20287;-61
2022/10/06 06:06:24;;;;;;;1999.90;999.90;;;;;;;15.82;100.00;95647.84;5093694;28;20210;-53
2022/10/06 06:09:02;;;;;;;1999.90;999.90;;;;;;;16.17;100.00;95600.09;5093332;28;20177;-54
2022/10/06 06:11:30;;;;;;;1999.90;999.90;;;;;;;16.44;100.00;95558.47;5094005;28;20177;-54
2022/10/06 06:13:57;;;;;;;1999.90;999.90;;;;;;;16.75;100.00;95498.84;5093101;28;20228;-53
2022/10/06 06:16:23;;;;;;;1999.90;999.90;;;;;;;17.11;100.00;95444.09;5093226;28;20183;-56
2022/10/06 06:18:48;;;;;;;1999.90;999.90;;;;;;;17.35;100.00;95392.03;5093727;28;20172;-56
2022/10/06 06:21:14;;;;;;;1999.90;999.90;;;;;;;17.84;100.00;95269.50;5093457;28;20176;-58
2022/10/06 06:23:44;;;;;;;1999.90;999.90;;;;;;;18.05;100.00;95133.25;5094504;28;20177;-71
2022/10/06 06:26:13;;;;;;;1999.90;999.90;;;;;;;18.49;100.00;95413.16;5093633;28;20175;-71
2022/10/06 06:28:40;;;;;;;1999.90;999.90;;;;;;;18.66;100.00;96020.44;5093579;28;20176;-70
2022/10/06 06:31:10;;;;;;;1999.90;999.90;;;;;;;19.09;100.00;96209.03;5093390;28;20206;-69
2022/10/06 06:33:38;;;;;;;1999.90;999.90;;;;;;;19.49;100.00;96271.25;5093456;28;20223;-69
2022/10/06 06:36:27;;;;;;;1999.90;999.90;;;;;;;20.45;100.00;96336.50;5093747;28;20173;-71
2022/10/06 06:38:55;;;;;;;1999.90;999.90;;;;;;;21.05;100.00;96363.91;5093390;28;20203;-63
2022/10/06 06:41:28;;;;;;;1999.90;999.90;;;;;;;21.03;100.00;96394.16;5093376;28;20194;-60
2022/10/06 06:43:58;;;;;;;1999.90;999.90;;;;;;;21.51;100.00;96410.38;5093293;28;20168;-60
2022/10/06 06:46:26;;;;;;;1999.90;999.90;;;;;;;21.84;100.00;96435.88;5093260;28;20165;-60
2022/10/06 06:48:53;;;;;;;1999.90;999.90;;;;;;;22.08;100.00;96451.69;5093747;28;20198;-58
2022/10/06 06:51:21;;;;;;;1999.90;999.90;;;;;;;22.52;100.00;96462.84;5093618;28;20179;-59
2022/10/06 06:53:47;;;;;;;1999.90;999.90;;;;;;;23.16;100.00;96462.72;5093818;28;20193;-58
2022/10/06 06:56:13;;;;;;;1999.90;999.90;;;;;;;23.50;100.00;96479.28;5093946;28;20176;-58
2022/10/06 06:58:38;;;;;;;1999.90;999.90;;;;;;;23.60;100.00;96480.09;5092936;28;20199;-70
2022/10/06 07:01:12;;;;;;;1999.90;999.90;;;;;;;24.09;95.74;96491.97;5093258;28;20215;-61
2022/10/06 07:03:39;;;;;;;1999.90;999.90;;;;;;;24.55;86.27;96504.69;5093265;28;20197;-61
2022/10/06 07:06:08;;;;;;;1999.90;999.90;;;;;;;24.69;82.47;96504.06;5093122;28;20216;-61
2022/10/06 07:08:35;;;;;;;1999.90;999.90;;;;;;;25.34;79.42;96515.38;5092984;28;20184;-61
2022/10/06 07:11:13;;;;;;;1999.90;999.90;;;;;;;25.33;76.39;96517.44;5093688;28;20196;-61
2022/10/06 07:13:39;;;;;;;1999.90;999.90;;;;;;;25.37;78.40;96517.25;5093292;28;20228;-59
2022/10/06 07:27:02;;;;;;;1999.90;999.90;;;;;;;27.59;63.43;96538.84;5097772;28;20289;-60
2022/10/06 07:29:27;;;;;;;1999.90;999.90;;;;;;;27.21;62.79;96544.56;5096674;28;20172;-59
2022/10/06 07:31:53;;;;;;;1999.90;999.90;;;;;;;27.51;62.42;96554.53;5097032;28;20212;-59
2022/10/06 07:34:18;;;;;;;1999.90;999.90;;;;;;;27.71;60.11;96557.41;5096573;28;20282;-58
2022/10/06 07:36:48;;;;;;;1999.90;999.90;;;;;;;28.20;58.40;96548.94;5097388;28;20173;-58
2022/10/06 07:39:13;;;;;;;1999.90;999.90;;;;;;;28.17;57.71;96552.75;5096384;28;20180;-55
2022/10/06 07:41:38;;;;;;;1999.90;999.90;;;;;;;28.60;55.68;96559.44;5096247;28;20200;-56
2022/10/06 07:44:04;;;;;;;1999.90;999.90;;;;;;;29.09;51.75;96558.47;5096787;28;20185;-53
2022/10/06 07:46:32;;;;;;;1999.90;999.90;;;;;;;28.75;54.72;96557.31;5096647;28;20173;-55
2022/10/06 07:48:57;;;;;;;1999.90;999.90;;;;;;;29.20;54.68;96555.78;5095912;28;20176;-55
2022/10/06 07:51:23;;;;;;;1999.90;999.90;;;;;;;28.85;51.62;96557.94;5096683;28;20179;-56
2022/10/06 07:53:49;;;;;;;1999.90;999.90;;;;;;;28.71;53.38;96556.75;5096177;28;20290;-68
2022/10/06 07:56:19;;;;;;;1999.90;999.90;;;;;;;29.02;52.66;96561.72;5095961;28;20215;-53
2022/10/06 07:58:47;;;;;;;1999.90;999.90;;;;;;;28.96;52.99;96569.31;5096164;28;20168;-55
2022/10/06 08:01:15;;;;;;;1999.90;999.90;;;;;;;29.71;51.07;96569.81;5095880;28;20172;-55
2022/10/06 08:03:42;;;;;;;1999.90;999.90;;;;;;;30.31;48.16;96580.72;5096446;28;20246;-54
2022/10/06 08:06:12;;;;;;;1999.90;999.90;;;;;;;29.74;49.98;96582.88;5096349;28;20168;-54
2022/10/06 08:08:38;;;;;;;1999.90;999.90;;;;;;;30.38;47.82;96585.91;5095485;28;20180;-51
2022/10/06 08:11:05;;;;;;;1999.90;999.90;;;;;;;31.00;46.78;96591.31;5095120;28;20180;-60
2022/10/06 08:13:31;;;;;;;1999.90;999.90;;;;;;;30.92;47.23;96587.44;5095412;28;20212;-58
2022/10/06 08:16:06;;;;;;;1999.90;999.90;;;;;;;30.71;46.76;96588.91;5096369;28;20250;-59
2022/10/06 08:18:32;;;;;;;1999.90;999.90;;;;;;;29.46;51.51;96590.31;5095413;28;20176;-59
2022/10/06 08:20:57;;;;;;;1999.90;999.90;;;;;;;30.51;48.91;96589.03;5095433;28;20169;-60
2022/10/06 08:23:23;;;;;;;1999.90;999.90;;;;;;;29.94;50.41;96591.25;5095579;28;20164;-59
2022/10/06 08:25:53;;;;;;;1999.90;999.90;;;;;;;30.08;50.97;96595.94;5095885;28;20168;-59
2022/10/06 08:28:19;;;;;;;1999.90;999.90;;;;;;;30.61;48.34;96598.81;5095945;28;20176;-59
2022/10/06 08:30:45;;;;;;;1999.90;999.90;;;;;;;30.72;47.01;96594.03;5095855;28;20191;-60
2022/10/06 08:33:10;;;;;;;1999.90;999.90;;;;;;;30.43;49.20;96596.44;5095329;28;20169;-58
2022/10/06 08:35:36;;;;;;;1999.90;999.90;;;;;;;29.80;51.77;96597.78;5095084;28;20267;-59
2022/10/06 08:38:01;;;;;;;1999.90;999.90;;;;;;;29.96;51.44;96595.09;5095998;28;20271;-59
2022/10/06 08:40:28;;;;;;;1999.90;999.90;;;;;;;29.40;52.73;96609.19;5073950;28;20276;-59
2022/10/06 08:42:57;;;;;;;1999.90;999.90;;;;;;;29.62;53.10;96607.38;5057488;28;20186;-60
2022/10/06 08:45:31;;;;;;;1999.90;999.90;;;;;;;29.77;53.39;96601.59;5073753;28;20209;-58
2022/10/06 08:48:02;;;;;;;1999.90;999.90;;;;;;;29.69;52.82;96597.69;5057958;28;20173;-56
2022/10/06 08:50:34;;;;;;;1999.90;999.90;;;;;;;29.09;56.55;96595.06;5057068;28;20308;-62
2022/10/06 08:53:31;;;;;;;1999.90;999.90;;;;;;;29.73;52.16;96603.88;5074017;28;20175;-60
2022/10/06 08:56:09;;;;;;;1999.90;999.90;;;;;;;29.40;53.55;96606.38;5035114;28;20196;-58
2022/10/06 08:58:57;;;;;;;1999.90;999.90;;;;;;;29.42;54.31;96598.22;5073603;28;20165;-58
2022/10/06 09:01:31;;;;;;;1999.90;999.90;;;;;;;29.79;53.41;96607.53;5057336;28;20238;-58
2022/10/06 09:04:03;;;;;;;1999.90;999.90;;;;;;;29.63;54.67;96600.47;5057072;28;20208;-58
2022/10/06 09:06:47;;;;;;;1999.90;999.90;;;;;;;30.30;51.42;96604.56;5057391;28;20185;-58
2022/10/06 09:09:52;;;;;;;1999.90;999.90;;;;;;;29.87;53.41;96608.59;5073840;28;20169;-60
2022/10/06 09:12:39;;;;;;;1999.90;999.90;;;;;;;29.45;55.99;96600.00;5088170;28;20180;-60
2022/10/06 09:15:18;;;;;;;1999.90;999.90;;;;;;;29.30;55.17;96599.34;5093981;28;20223;-60
2022/10/06 09:17:53;;;;;;;1999.90;999.90;;;;;;;29.59;56.03;96607.59;5094468;28;20263;-60
2022/10/06 09:20:22;;;;;;;1999.90;999.90;;;;;;;29.61;54.87;96596.63;5094801;28;20176;-60
2022/10/06 09:22:50;;;;;;;1999.90;999.90;;;;;;;30.53;51.89;96611.88;5095046;28;20175;-60
2022/10/06 09:25:19;;;;;;;1999.90;999.90;;;;;;;30.22;51.26;96600.66;5094236;28;20201;-60
2022/10/06 09:27:49;;;;;;;1999.90;999.90;;;;;;;29.34;54.42;96606.31;5094706;28;20229;-61
2022/10/06 09:30:15;;;;;;;1999.90;999.90;;;;;;;29.15;55.70;96598.69;5094295;28;20172;-62
2022/10/06 09:32:47;;;;;;;1999.90;999.90;;;;;;;29.36;55.12;96605.81;5094775;28;20173;-61
2022/10/06 09:35:19;;;;;;;1999.90;999.90;;;;;;;30.00;54.03;96614.56;5094765;28;20256;-61
2022/10/06 09:38:03;;;;;;;1999.90;999.90;;;;;;;30.99;50.48;96607.47;5093951;28;20196;-62
2022/10/06 09:40:48;;;;;;;1999.90;999.90;;;;;;;31.19;49.90;96620.63;5094839;28;20164;-62
2022/10/06 09:43:27;;;;;;;1999.90;999.90;;;;;;;30.09;51.21;96605.94;5093619;28;20169;-56
2022/10/06 09:45:55;;;;;;;1999.90;999.90;;;;;;;29.40;56.13;96606.38;5093886;28;20299;-62
2022/10/06 09:48:25;;;;;;;1999.90;999.90;;;;;;;30.18;51.76;96605.75;5093748;28;20165;-62
2022/10/06 09:51:13;;;;;;;1999.90;999.90;;;;;;;29.61;55.38;96607.88;5094393;28;20173;-61
2022/10/06 09:53:40;;;;;;;1999.90;999.90;;;;;;;29.19;55.45;96604.88;5094474;28;20229;-62
2022/10/06 09:56:17;;;;;;;1999.90;999.90;;;;;;;29.49;55.41;96611.84;5093428;28;20210;-61
2022/10/06 09:58:56;;;;;;;1999.90;999.90;;;;;;;30.25;52.85;96605.28;5094727;28;20180;-62
2022/10/06 10:01:27;;;;;;;1999.90;999.90;;;;;;;30.72;51.10;96604.56;5093837;28;20175;-58
2022/10/06 10:03:56;;;;;;;1999.90;999.90;;;;;;;29.59;51.88;96604.78;5093558;28;20196;-69
2022/10/06 10:06:22;;;;;;;1999.90;999.90;;;;;;;29.59;58.27;96599.16;5094055;28;20602;-57
2022/10/06 10:08:47;;;;;;;1999.90;999.90;;;;;;;28.33;58.28;96601.25;5094262;28;20173;-58
2022/10/06 10:14:15;;;;;;;1999.90;999.90;;;;;;;28.51;63.18;96590.50;5094752;28;20281;-58
2022/10/06 10:16:41;;;;;;;1999.90;999.90;;;;;;;29.01;61.53;96588.28;5093228;28;20177;-58
2022/10/06 10:19:23;;;;;;;1999.90;999.90;;;;;;;28.71;66.03;96592.53;5093254;28;20175;-59
2022/10/06 10:21:51;;;;;;;1999.90;999.90;;;;;;;28.85;63.11;96586.84;5093439;28;20169;-58
2022/10/06 10:24:33;;;;;;;1999.90;999.90;;;;;;;28.43;64.95;96589.38;5093542;28;20199;-54
2022/10/06 10:27:14;;;;;;;1999.90;999.90;;;;;;;27.89;68.02;96593.72;5094023;28;20256;-55
2022/10/06 10:30:08;;;;;;;1999.90;999.90;;;;;;;27.49;74.64;96585.13;5093991;28;20238;-55
2022/10/06 10:32:51;;;;;;;1999.90;999.90;;;;;;;28.27;71.43;96585.06;5094382;28;20153;-55
2022/10/06 10:35:40;;;;;;;1999.90;999.90;;;;;;;29.13;67.67;96584.34;5094253;28;20176;-55
2022/10/06 10:38:18;;;;;;;1999.90;999.90;;;;;;;29.47;63.88;96594.66;5094521;28;20153;-54
2022/10/06 10:40:47;;;;;;;1999.90;999.90;;;;;;;27.80;70.75;96593.81;5094042;28;20255;-61
2022/10/06 10:43:39;;;;;;;1999.90;999.90;;;;;;;28.61;67.15;96593.94;5093020;28;20239;-61
2022/10/06 10:46:24;;;;;;;1999.90;999.90;;;;;;;29.15;64.88;96596.66;5089179;28;20192;-60
2022/10/06 10:49:04;;;;;;;1999.90;999.90;;;;;;;29.17;65.26;96599.75;5092847;28;20203;-61
2022/10/06 10:51:36;;;;;;;1999.90;999.90;;;;;;;28.13;69.95;96588.72;5094337;28;20164;-60
2022/10/06 10:54:09;;;;;;;1999.90;999.90;;;;;;;28.80;69.23;96586.78;5093287;28;20200;-61
2022/10/06 10:56:35;;;;;;;1999.90;999.90;;;;;;;29.04;67.12;96585.28;5095200;28;20169;-59
2022/10/06 10:59:26;;;;;;;1999.90;999.90;;;;;;;27.98;67.36;96596.38;5097248;28;20179;-53
2022/10/06 11:01:59;;;;;;;1999.90;999.90;;;;;;;26.78;77.72;96587.38;5097128;28;20190;-55
2022/10/06 11:04:24;;;;;;;1999.90;999.90;;;;;;;26.37;84.34;96579.09;5097348;28;20204;-55
2022/10/06 11:07:08;;;;;;;1999.90;999.90;;;;;;;25.44;90.71;96578.47;5097277;28;20172;-55
2022/10/06 11:09:49;;;;;;;1999.90;999.90;;;;;;;25.03;97.76;96568.00;5097035;28;20208;-54
2022/10/06 11:12:40;;;;;;;1999.90;999.90;;;;;;;24.42;100.00;96555.13;5097107;28;20169;-57
2022/10/06 11:15:22;;;;;;;1999.90;999.90;;;;;;;24.60;100.00;96545.97;5060764;28;20216;-58